Time;durP1;ratioP1;P1;durP2;ratioP2;P2;SDS_P1;SDS_P2;PMS_P1;PMS_P2;Temp;Humidity;BMP_temperature;BMP_pressure;BME280_temperature;BME280_humidity;BME280_pressure;Samples;Min_cycle;Max_cycle;Signal;HPM_P1;HPM_P2
2021/09/10 00:02:02;;;;;;;21.55;17.75;;;;;;;;;;5070708;28;20059;-64
2021/09/10 00:05:07;;;;;;;30.45;18.15;;;;;;;;;;5070479;28;20045;-64
2021/09/10 00:08:11;;;;;;;22.50;17.27;;;;;;;;;;5070145;28;20340;-65
2021/09/10 00:11:15;;;;;;;23.52;17.95;;;;;;;;;;5070309;28;20051;-64
2021/09/10 00:14:19;;;;;;;19.90;17.13;;;;;;;;;;5070238;28;20396;-64
2021/09/10 00:17:24;;;;;;;22.52;17.25;;;;;;;;;;5070270;28;20048;-64
2021/09/10 00:20:28;;;;;;;27.42;17.77;;;;;;;;;;5069462;28;20094;-64
2021/09/10 00:23:32;;;;;;;23.92;17.45;;;;;;;;;;5070262;28;20039;-64
2021/09/10 00:26:39;;;;;;;22.17;17.90;;;;;;;;;;5070118;28;20048;-64
2021/09/10 00:29:43;;;;;;;23.63;18.75;;;;;;;;;;5070225;28;20063;-65
2021/09/10 00:32:48;;;;;;;22.02;18.55;;;;;;;;;;5073792;28;20051;-64
2021/09/10 00:35:52;;;;;;;20.73;18.13;;;;;;;;;;5073827;28;20043;-64
2021/09/10 00:38:56;;;;;;;22.15;18.30;;;;;;;;;;5073637;28;20059;-65
2021/09/10 00:42:01;;;;;;;21.67;19.20;;;;;;;;;;5073614;28;20043;-63
2021/09/10 00:45:05;;;;;;;23.20;18.65;;;;;;;;;;5073435;28;20048;-64
2021/09/10 00:48:10;;;;;;;29.15;20.17;;;;;;;;;;5073625;28;20036;-64
2021/09/10 00:51:14;;;;;;;27.30;19.75;;;;;;;;;;5073541;28;20077;-64
2021/09/10 00:54:18;;;;;;;29.17;19.52;;;;;;;;;;5072567;28;20048;-64
2021/09/10 00:57:22;;;;;;;29.40;19.45;;;;;;;;;;5073018;28;20411;-64
2021/09/10 01:00:26;;;;;;;27.45;20.30;;;;;;;;;;5073467;28;20059;-64
2021/09/10 01:03:31;;;;;;;25.13;19.17;;;;;;;;;;5073344;28;20039;-64
2021/09/10 01:06:35;;;;;;;23.80;18.88;;;;;;;;;;5072886;28;20059;-64
2021/09/10 01:09:40;;;;;;;27.30;18.40;;;;;;;;;;5073313;28;20043;-64
2021/09/10 01:12:45;;;;;;;22.67;18.92;;;;;;;;;;5072877;28;20072;-64
2021/09/10 01:15:50;;;;;;;24.83;18.38;;;;;;;;;;5072909;28;20044;-64
2021/09/10 01:18:54;;;;;;;27.75;18.77;;;;;;;;;;5072857;28;20106;-66
2021/09/10 01:22:00;;;;;;;24.42;19.50;;;;;;;;;;5073174;28;20055;-65
2021/09/10 01:25:04;;;;;;;23.95;18.73;;;;;;;;;;5072831;28;20048;-65
2021/09/10 01:28:08;;;;;;;20.63;18.42;;;;;;;;;;5072925;28;20499;-65
2021/09/10 01:31:13;;;;;;;29.77;19.83;;;;;;;;;;5072599;28;20052;-65
2021/09/10 01:34:17;;;;;;;29.42;19.27;;;;;;;;;;5072664;28;20399;-63
2021/09/10 01:37:21;;;;;;;27.67;19.40;;;;;;;;;;5072401;28;20047;-64
2021/09/10 01:40:26;;;;;;;24.83;19.35;;;;;;;;;;5072555;28;20396;-64
2021/09/10 01:43:30;;;;;;;29.55;20.60;;;;;;;;;;5072214;28;20044;-65
2021/09/10 01:46:34;;;;;;;22.52;19.70;;;;;;;;;;5072265;28;20514;-64
2021/09/10 01:49:39;;;;;;;23.63;19.67;;;;;;;;;;5072222;28;20036;-64
2021/09/10 01:52:43;;;;;;;24.20;19.70;;;;;;;;;;5072219;28;20052;-64
2021/09/10 01:55:47;;;;;;;24.15;19.50;;;;;;;;;;5072206;28;20047;-64
2021/09/10 01:58:51;;;;;;;23.92;19.10;;;;;;;;;;5071376;28;20043;-65
2021/09/10 02:01:56;;;;;;;29.00;19.17;;;;;;;;;;5071894;28;20043;-64
2021/09/10 02:05:00;;;;;;;24.77;18.83;;;;;;;;;;5072075;28;20059;-64
2021/09/10 02:08:05;;;;;;;24.80;19.58;;;;;;;;;;5071690;28;20047;-64
2021/09/10 02:11:09;;;;;;;23.77;17.92;;;;;;;;;;5071806;28;20072;-64
2021/09/10 02:14:13;;;;;;;25.27;19.33;;;;;;;;;;5071828;28;20043;-64
2021/09/10 02:17:18;;;;;;;25.67;19.10;;;;;;;;;;5071601;28;20043;-64
2021/09/10 02:20:22;;;;;;;24.85;19.08;;;;;;;;;;5071664;28;20039;-64
2021/09/10 02:23:26;;;;;;;26.52;19.42;;;;;;;;;;5071560;28;20047;-64
2021/09/10 02:26:31;;;;;;;22.75;18.83;;;;;;;;;;5071460;28;20502;-64
2021/09/10 02:29:35;;;;;;;24.92;18.35;;;;;;;;;;5071448;28;20051;-64
2021/09/10 02:32:39;;;;;;;24.67;17.65;;;;;;;;;;5071465;28;20067;-64
2021/09/10 02:35:43;;;;;;;26.23;19.92;;;;;;;;;;5071470;28;20047;-64
2021/09/10 02:38:48;;;;;;;25.55;19.98;;;;;;;;;;5071504;28;20039;-64
2021/09/10 02:41:52;;;;;;;27.75;19.85;;;;;;;;;;5071389;28;20118;-64
2021/09/10 02:44:56;;;;;;;22.17;19.20;;;;;;;;;;5071320;28;20391;-65
2021/09/10 02:48:01;;;;;;;23.83;19.58;;;;;;;;;;5071109;28;20039;-65
2021/09/10 02:51:05;;;;;;;22.42;18.05;;;;;;;;;;5071168;28;20396;-65
2021/09/10 02:54:10;;;;;;;26.58;18.65;;;;;;;;;;5070739;28;20071;-65
2021/09/10 02:57:15;;;;;;;25.13;19.05;;;;;;;;;;5071139;28;20506;-65
2021/09/10 03:00:19;;;;;;;22.25;19.40;;;;;;;;;;5071076;28;20048;-65
2021/09/10 03:03:25;;;;;;;26.80;19.63;;;;;;;;;;5070992;28;20036;-65
2021/09/10 03:06:30;;;;;;;30.23;20.10;;;;;;;;;;5070870;28;20052;-65
2021/09/10 03:09:34;;;;;;;26.30;19.20;;;;;;;;;;5071047;28;20051;-65
2021/09/10 03:12:40;;;;;;;26.50;20.33;;;;;;;;;;5070875;28;20055;-65
2021/09/10 03:15:44;;;;;;;29.20;20.70;;;;;;;;;;5070870;28;20043;-64
2021/09/10 03:18:49;;;;;;;28.52;20.23;;;;;;;;;;5070974;28;20047;-64
2021/09/10 03:21:53;;;;;;;27.50;21.10;;;;;;;;;;5071001;28;20039;-64
2021/09/10 03:24:58;;;;;;;25.85;19.20;;;;;;;;;;5071212;28;20040;-64
2021/09/10 03:28:03;;;;;;;25.90;20.35;;;;;;;;;;5070753;28;20040;-64
2021/09/10 03:31:08;;;;;;;25.80;20.55;;;;;;;;;;5070809;28;20051;-64
2021/09/10 03:34:12;;;;;;;25.50;20.63;;;;;;;;;;5070797;28;20047;-64
2021/09/10 03:37:16;;;;;;;25.05;20.55;;;;;;;;;;5070587;28;20060;-64
2021/09/10 03:40:21;;;;;;;24.88;20.25;;;;;;;;;;5070816;28;20044;-64
2021/09/10 03:43:26;;;;;;;27.50;21.08;;;;;;;;;;5070823;28;20051;-64
2021/09/10 03:46:30;;;;;;;26.73;19.65;;;;;;;;;;5070648;28;20040;-64
2021/09/10 03:49:37;;;;;;;25.20;19.02;;;;;;;;;;5071021;28;20047;-64
2021/09/10 03:52:41;;;;;;;25.45;18.98;;;;;;;;;;5070550;28;20054;-64
2021/09/10 03:55:45;;;;;;;24.05;19.67;;;;;;;;;;5070502;28;20510;-64
2021/09/10 03:58:50;;;;;;;26.63;19.58;;;;;;;;;;5070573;28;20040;-64
2021/09/10 04:01:54;;;;;;;23.98;19.90;;;;;;;;;;5070824;28;20486;-64
2021/09/10 04:04:59;;;;;;;27.60;18.85;;;;;;;;;;5070415;28;20052;-65
2021/09/10 04:08:05;;;;;;;24.80;19.00;;;;;;;;;;5074001;28;20056;-64
2021/09/10 04:11:10;;;;;;;26.05;19.08;;;;;;;;;;5073058;28;20063;-64
2021/09/10 04:14:14;;;;;;;22.70;17.75;;;;;;;;;;5074074;28;20039;-65
2021/09/10 04:17:18;;;;;;;22.75;18.02;;;;;;;;;;5073958;28;20040;-64
2021/09/10 04:20:23;;;;;;;23.08;18.73;;;;;;;;;;5073960;28;20056;-64
2021/09/10 04:23:27;;;;;;;23.38;18.33;;;;;;;;;;5073914;28;20511;-65
2021/09/10 04:26:31;;;;;;;23.60;18.67;;;;;;;;;;5073743;28;20047;-65
2021/09/10 04:29:36;;;;;;;25.70;19.00;;;;;;;;;;5073856;28;20055;-65
2021/09/10 04:32:40;;;;;;;24.20;19.33;;;;;;;;;;5073722;28;20054;-65
2021/09/10 04:35:44;;;;;;;31.25;18.77;;;;;;;;;;5073500;28;20059;-64
2021/09/10 04:38:49;;;;;;;23.80;18.60;;;;;;;;;;5073760;28;20048;-65
2021/09/10 04:41:53;;;;;;;25.20;19.27;;;;;;;;;;5073978;28;20040;-66
2021/09/10 04:44:57;;;;;;;27.30;20.23;;;;;;;;;;5073892;28;20039;-65
2021/09/10 04:48:02;;;;;;;26.15;18.77;;;;;;;;;;5073969;28;20059;-65
2021/09/10 04:51:07;;;;;;;32.05;20.05;;;;;;;;;;5072842;28;20047;-64
2021/09/10 04:54:14;;;;;;;35.75;19.70;;;;;;;;;;5072817;28;20059;-65
2021/09/10 04:57:19;;;;;;;32.20;20.23;;;;;;;;;;5073838;28;20035;-63
2021/09/10 05:00:23;;;;;;;28.00;18.13;;;;;;;;;;5073633;28;20111;-63
2021/09/10 05:03:27;;;;;;;29.42;19.77;;;;;;;;;;5073709;28;20043;-63
2021/09/10 05:06:32;;;;;;;27.92;19.85;;;;;;;;;;5073350;28;20055;-65
2021/09/10 05:09:36;;;;;;;27.35;20.73;;;;;;;;;;5072490;28;20039;-66
2021/09/10 05:12:41;;;;;;;30.38;20.70;;;;;;;;;;5073030;28;20067;-65
2021/09/10 05:15:45;;;;;;;30.33;20.05;;;;;;;;;;5072949;28;20051;-67
2021/09/10 05:18:49;;;;;;;22.20;18.52;;;;;;;;;;5072989;28;20048;-65
2021/09/10 05:21:54;;;;;;;27.20;18.77;;;;;;;;;;5073008;28;20051;-65
2021/09/10 05:24:58;;;;;;;25.75;18.88;;;;;;;;;;5072979;28;20511;-64
2021/09/10 05:28:02;;;;;;;24.65;17.80;;;;;;;;;;5073054;28;20059;-64
2021/09/10 05:31:08;;;;;;;22.92;17.08;;;;;;;;;;5072975;28;20043;-66
2021/09/10 05:34:12;;;;;;;26.38;16.85;;;;;;;;;;5073044;28;20059;-65
2021/09/10 05:37:16;;;;;;;22.92;15.48;;;;;;;;;;5073047;28;20040;-65
2021/09/10 05:40:21;;;;;;;27.20;16.08;;;;;;;;;;5072616;28;20048;-66
2021/09/10 05:43:26;;;;;;;26.15;17.75;;;;;;;;;;5071833;28;20589;-67
2021/09/10 05:46:30;;;;;;;22.02;14.85;;;;;;;;;;5071774;28;20043;-64
2021/09/10 05:49:34;;;;;;;21.33;13.40;;;;;;;;;;5072683;28;20395;-64
2021/09/10 05:52:39;;;;;;;21.05;13.80;;;;;;;;;;5072465;28;20059;-67
2021/09/10 05:55:43;;;;;;;19.77;13.35;;;;;;;;;;5072743;28;20047;-69
2021/09/10 05:58:48;;;;;;;15.68;13.13;;;;;;;;;;5048705;28;20043;-67
2021/09/10 06:01:52;;;;;;;18.83;13.82;;;;;;;;;;5072484;28;20383;-67
2021/09/10 06:04:57;;;;;;;18.52;14.25;;;;;;;;;;5072238;28;20051;-68
2021/09/10 06:08:02;;;;;;;17.17;13.88;;;;;;;;;;5071838;28;20043;-68
2021/09/10 06:11:08;;;;;;;22.38;14.57;;;;;;;;;;5071106;28;20657;-69
2021/09/10 06:14:12;;;;;;;23.13;14.85;;;;;;;;;;5071752;28;20048;-67
2021/09/10 06:17:16;;;;;;;19.05;14.35;;;;;;;;;;5071632;28;20056;-68
2021/09/10 06:20:21;;;;;;;18.30;14.05;;;;;;;;;;5072257;28;20040;-70
2021/09/10 06:23:25;;;;;;;24.98;15.75;;;;;;;;;;5071962;28;20530;-68
2021/09/10 06:26:30;;;;;;;29.67;14.52;;;;;;;;;;5071194;28;20419;-66
2021/09/10 06:29:34;;;;;;;18.05;13.70;;;;;;;;;;5071050;28;20055;-67
2021/09/10 06:32:38;;;;;;;19.20;13.45;;;;;;;;;;5070598;28;20047;-67
2021/09/10 06:35:42;;;;;;;20.05;12.82;;;;;;;;;;5071810;28;20039;-68
2021/09/10 06:38:47;;;;;;;31.10;14.25;;;;;;;;;;5071560;28;20043;-69
2021/09/10 06:41:51;;;;;;;18.95;13.60;;;;;;;;;;5071225;28;20261;-67
2021/09/10 06:44:56;;;;;;;18.00;13.32;;;;;;;;;;5070888;28;20055;-68
2021/09/10 06:48:00;;;;;;;21.65;13.93;;;;;;;;;;5059229;28;20047;-69
2021/09/10 06:51:04;;;;;;;22.25;13.63;;;;;;;;;;5071794;28;20039;-69
2021/09/10 06:54:08;;;;;;;19.88;13.48;;;;;;;;;;5071781;28;20055;-68
2021/09/10 06:57:13;;;;;;;20.88;12.85;;;;;;;;;;5071621;28;20400;-69
2021/09/10 07:00:17;;;;;;;18.05;13.70;;;;;;;;;;5071445;28;20036;-69
2021/09/10 07:03:21;;;;;;;32.63;16.85;;;;;;;;;;5071456;28;20052;-68
2021/09/10 07:06:26;;;;;;;27.23;16.67;;;;;;;;;;5070395;28;20051;-68
2021/09/10 07:09:34;;;;;;;31.80;18.65;;;;;;;;;;5071828;28;20047;-67
2021/09/10 07:12:38;;;;;;;31.90;16.50;;;;;;;;;;5071456;28;20051;-69
2021/09/10 07:15:43;;;;;;;28.75;18.27;;;;;;;;;;5071659;28;20040;-69
2021/09/10 07:18:47;;;;;;;26.98;17.90;;;;;;;;;;5070876;28;20506;-68
2021/09/10 07:21:51;;;;;;;35.33;16.95;;;;;;;;;;5071537;28;20043;-68
2021/09/10 07:24:56;;;;;;;26.30;17.63;;;;;;;;;;5071142;28;20048;-68
2021/09/10 07:28:01;;;;;;;30.38;16.80;;;;;;;;;;5070407;28;20043;-68
2021/09/10 07:31:06;;;;;;;64.88;18.58;;;;;;;;;;5071248;28;20063;-69
2021/09/10 07:34:10;;;;;;;29.13;15.15;;;;;;;;;;5071282;28;20503;-68
2021/09/10 07:37:14;;;;;;;21.48;14.68;;;;;;;;;;5070013;28;20041;-69
2021/09/10 07:40:18;;;;;;;21.83;15.10;;;;;;;;;;5072953;28;20499;-67
2021/09/10 07:43:23;;;;;;;29.40;14.75;;;;;;;;;;5074656;28;20051;-70
2021/09/10 07:46:27;;;;;;;20.90;14.35;;;;;;;;;;5075985;28;20048;-76
2021/09/10 07:49:32;;;;;;;20.75;12.85;;;;;;;;;;5076943;28;20459;-78
2021/09/10 07:52:36;;;;;;;19.25;12.40;;;;;;;;;;5077610;28;20415;-77
2021/09/10 07:55:41;;;;;;;22.10;14.80;;;;;;;;;;5077520;28;20399;-77
2021/09/10 07:58:45;;;;;;;20.33;12.68;;;;;;;;;;5066011;28;20035;-77
2021/09/10 08:01:51;;;;;;;18.48;13.55;;;;;;;;;;5076747;28;20040;-76
2021/09/10 08:04:56;;;;;;;20.60;14.05;;;;;;;;;;5077487;28;20044;-78
2021/09/10 08:08:01;;;;;;;22.98;13.27;;;;;;;;;;5077080;28;20060;-77
2021/09/10 08:11:06;;;;;;;12.38;9.38;;;;;;;;;;5077885;28;20039;-78
2021/09/10 08:14:10;;;;;;;15.68;11.98;;;;;;;;;;5077920;28;20048;-76
2021/09/10 08:17:15;;;;;;;20.27;10.38;;;;;;;;;;5077535;28;20055;-77
2021/09/10 08:20:21;;;;;;;13.98;10.48;;;;;;;;;;5078378;28;20047;-77
2021/09/10 08:23:28;;;;;;;18.02;11.88;;;;;;;;;;5078514;28;20063;-78
2021/09/10 08:26:33;;;;;;;11.25;9.07;;;;;;;;;;5077426;28;20044;-77
2021/09/10 08:29:37;;;;;;;19.95;11.82;;;;;;;;;;5077719;28;20036;-77
2021/09/10 08:32:42;;;;;;;16.38;11.20;;;;;;;;;;5077456;28;20059;-76
2021/09/10 08:35:46;;;;;;;21.08;11.77;;;;;;;;;;5077760;28;20499;-77
2021/09/10 08:38:51;;;;;;;18.80;11.98;;;;;;;;;;5065570;28;20048;-77
2021/09/10 08:41:55;;;;;;;15.85;8.85;;;;;;;;;;5076244;28;20047;-78
2021/09/10 08:45:03;;;;;;;17.77;9.95;;;;;;;;;;5077086;28;20056;-77
2021/09/10 08:48:09;;;;;;;13.02;9.45;;;;;;;;;;5077829;28;20041;-78
2021/09/10 08:51:15;;;;;;;18.42;10.13;;;;;;;;;;5075237;28;20495;-77
2021/09/10 08:54:21;;;;;;;19.35;11.05;;;;;;;;;;5076659;28;20499;-76
2021/09/10 08:57:29;;;;;;;13.48;8.73;;;;;;;;;;5077572;28;20506;-77
2021/09/10 09:00:34;;;;;;;15.85;11.13;;;;;;;;;;5078168;28;20440;-77
2021/09/10 09:03:39;;;;;;;12.52;9.10;;;;;;;;;;5077354;28;20039;-77
2021/09/10 09:06:44;;;;;;;12.90;10.27;;;;;;;;;;5076548;28;20420;-79
2021/09/10 09:09:48;;;;;;;14.55;10.50;;;;;;;;;;5076872;28;20047;-78
2021/09/10 09:13:12;;;;;;;10.75;9.60;;;;;;;;;;5077547;28;20085;-77
2021/09/10 09:16:18;;;;;;;19.00;9.93;;;;;;;;;;5077088;28;20033;-77
2021/09/10 09:19:22;;;;;;;15.52;9.60;;;;;;;;;;5077322;28;20043;-75
2021/09/10 09:22:27;;;;;;;11.88;8.27;;;;;;;;;;5064403;28;20037;-78
2021/09/10 09:25:41;;;;;;;11.40;8.38;;;;;;;;;;5077084;28;20036;-76
2021/09/10 09:28:46;;;;;;;12.45;8.73;;;;;;;;;;5077657;28;20377;-77
2021/09/10 09:31:54;;;;;;;13.75;8.68;;;;;;;;;;5077097;28;20044;-76
2021/09/10 09:35:00;;;;;;;12.25;8.38;;;;;;;;;;5075726;28;20040;-77
2021/09/10 09:38:33;;;;;;;13.05;9.40;;;;;;;;;;5077409;28;20044;-76
2021/09/10 09:41:43;;;;;;;11.70;9.20;;;;;;;;;;5076152;28;20036;-78
2021/09/10 09:45:07;;;;;;;16.70;8.90;;;;;;;;;;5073409;28;20045;-72
2021/09/10 09:48:12;;;;;;;16.77;9.77;;;;;;;;;;5071497;28;20053;-68
2021/09/10 09:51:18;;;;;;;12.02;8.45;;;;;;;;;;5072694;28;20407;-68
2021/09/10 09:54:23;;;;;;;13.18;8.93;;;;;;;;;;5072790;28;20044;-67
2021/09/10 09:57:29;;;;;;;13.18;9.90;;;;;;;;;;5072291;28;20499;-67
2021/09/10 10:00:35;;;;;;;13.07;9.63;;;;;;;;;;5072323;28;20047;-68
2021/09/10 10:03:40;;;;;;;12.60;8.48;;;;;;;;;;5072153;28;20044;-70
2021/09/10 10:06:45;;;;;;;15.50;8.85;;;;;;;;;;5071714;28;20047;-68
2021/09/10 10:09:49;;;;;;;12.52;8.68;;;;;;;;;;5071992;28;20040;-67
2021/09/10 10:12:56;;;;;;;12.52;8.95;;;;;;;;;;5071730;28;20495;-66
2021/09/10 10:16:00;;;;;;;19.45;9.15;;;;;;;;;;5071669;28;20028;-67
2021/09/10 10:19:05;;;;;;;13.95;8.30;;;;;;;;;;5071144;28;20044;-68
2021/09/10 10:22:11;;;;;;;12.25;8.38;;;;;;;;;;5071481;28;20028;-68
2021/09/10 10:25:15;;;;;;;18.65;11.88;;;;;;;;;;5071431;28;20399;-67
2021/09/10 10:28:46;;;;;;;14.07;8.98;;;;;;;;;;5069689;28;20048;-66
2021/09/10 10:32:07;;;;;;;12.40;9.23;;;;;;;;;;5071128;28;20045;-68
2021/09/10 10:35:30;;;;;;;11.65;8.68;;;;;;;;;;5071465;28;20044;-66
2021/09/10 10:38:34;;;;;;;13.60;8.70;;;;;;;;;;5071769;28;20032;-66
2021/09/10 10:41:53;;;;;;;10.65;8.25;;;;;;;;;;5071410;28;20036;-67
2021/09/10 10:45:01;;;;;;;10.10;7.95;;;;;;;;;;5070795;28;20047;-68
2021/09/10 10:48:25;;;;;;;12.02;9.35;;;;;;;;;;5071230;28;20676;-66
2021/09/10 10:51:30;;;;;;;11.98;8.77;;;;;;;;;;5070902;28;20040;-67
2021/09/10 10:54:34;;;;;;;11.55;9.35;;;;;;;;;;5070674;28;20046;-69
2021/09/10 10:57:39;;;;;;;10.88;8.65;;;;;;;;;;5071039;28;20033;-67
2021/09/10 11:00:43;;;;;;;15.80;8.30;;;;;;;;;;5071392;28;20044;-68
2021/09/10 11:03:49;;;;;;;11.23;8.43;;;;;;;;;;5070700;28;20033;-67
2021/09/10 11:06:56;;;;;;;13.50;9.10;;;;;;;;;;5071017;28;20060;-66
2021/09/10 11:10:04;;;;;;;15.18;8.80;;;;;;;;;;5070503;28;20036;-67
2021/09/10 11:13:08;;;;;;;9.88;8.30;;;;;;;;;;5070170;28;20053;-68
2021/09/10 11:16:25;;;;;;;14.15;8.73;;;;;;;;;;5069917;28;20037;-67
2021/09/10 11:19:29;;;;;;;13.82;9.05;;;;;;;;;;5070203;28;20040;-66
2021/09/10 11:22:46;;;;;;;9.95;8.18;;;;;;;;;;5070222;28;20036;-66
2021/09/10 11:25:54;;;;;;;11.02;8.32;;;;;;;;;;5071266;28;20048;-67
2021/09/10 11:29:07;;;;;;;11.27;8.35;;;;;;;;;;5070552;28;20403;-67
2021/09/10 11:32:24;;;;;;;11.75;8.57;;;;;;;;;;5069472;28;20037;-66
2021/09/10 11:35:31;;;;;;;11.35;7.57;;;;;;;;;;5071045;28;20036;-65
2021/09/10 11:38:35;;;;;;;12.18;8.18;;;;;;;;;;5069531;28;20391;-67
2021/09/10 11:41:41;;;;;;;11.38;6.88;;;;;;;;;;5070407;28;20040;-67
2021/09/10 11:45:01;;;;;;;10.77;7.38;;;;;;;;;;5070331;28;20036;-66
2021/09/10 11:48:07;;;;;;;8.48;7.50;;;;;;;;;;5069539;28;20040;-66
2021/09/10 11:51:32;;;;;;;12.77;8.05;;;;;;;;;;5070346;28;20041;-66
2021/09/10 11:54:37;;;;;;;8.60;7.38;;;;;;;;;;5069247;28;20040;-66
2021/09/10 11:57:42;;;;;;;9.57;7.50;;;;;;;;;;5069683;28;20033;-67
2021/09/10 12:00:47;;;;;;;9.93;8.18;;;;;;;;;;5070230;28;20036;-67
2021/09/10 12:03:51;;;;;;;11.55;7.65;;;;;;;;;;5069132;28;20037;-66
2021/09/10 12:06:58;;;;;;;8.93;6.80;;;;;;;;;;5068737;28;20064;-66
2021/09/10 12:10:03;;;;;;;9.52;7.30;;;;;;;;;;5069903;28;20033;-67
2021/09/10 12:13:15;;;;;;;8.18;7.00;;;;;;;;;;5070217;28;20036;-66
2021/09/10 12:16:20;;;;;;;10.50;6.70;;;;;;;;;;5070384;28;20040;-68
2021/09/10 12:19:25;;;;;;;9.38;7.03;;;;;;;;;;5069724;28;20040;-67
2021/09/10 12:22:49;;;;;;;8.50;7.53;;;;;;;;;;5069524;28;20032;-65
2021/09/10 12:26:00;;;;;;;12.13;8.23;;;;;;;;;;5070230;28;20049;-68
2021/09/10 12:29:04;;;;;;;;;;;;;;;;;;5073920;28;20041;-69
2021/09/10 12:32:08;;;;;;;18.50;9.23;;;;;;;;;;5073243;28;19923;-68
2021/09/10 12:35:13;;;;;;;9.60;7.43;;;;;;;;;;5074056;28;20063;-68
2021/09/10 12:38:18;;;;;;;9.23;7.53;;;;;;;;;;5072565;28;20029;-66
2021/09/10 12:41:25;;;;;;;8.93;6.22;;;;;;;;;;5073823;28;20032;-68
2021/09/10 12:44:29;;;;;;;8.65;7.18;;;;;;;;;;5073930;28;20460;-71
2021/09/10 12:47:35;;;;;;;9.38;8.45;;;;;;;;;;5073580;28;20036;-74
2021/09/10 12:50:39;;;;;;;11.98;8.10;;;;;;;;;;5074729;28;20040;-73
2021/09/10 12:53:44;;;;;;;14.48;12.60;;;;;;;;;;5073738;28;20048;-71
2021/09/10 12:56:50;;;;;;;13.00;8.82;;;;;;;;;;5073498;28;20059;-70
2021/09/10 12:59:54;;;;;;;10.63;9.23;;;;;;;;;;5074297;28;20048;-71
2021/09/10 13:03:02;;;;;;;9.50;7.93;;;;;;;;;;5073993;28;20040;-71
2021/09/10 13:06:06;;;;;;;10.38;7.28;;;;;;;;;;5073752;28;20040;-70
2021/09/10 13:09:10;;;;;;;10.25;8.18;;;;;;;;;;5074985;28;20491;-72
2021/09/10 13:12:14;;;;;;;10.20;7.07;;;;;;;;;;5072440;28;20040;-71
2021/09/10 13:15:22;;;;;;;10.02;6.93;;;;;;;;;;5073575;28;20044;-71
2021/09/10 13:18:26;;;;;;;9.57;7.05;;;;;;;;;;5074663;28;20522;-70
2021/09/10 13:21:32;;;;;;;13.10;7.45;;;;;;;;;;5073359;28;20044;-71
2021/09/10 13:24:37;;;;;;;44.28;9.82;;;;;;;;;;5073843;28;20044;-70
2021/09/10 13:27:42;;;;;;;9.18;7.00;;;;;;;;;;5072876;28;20048;-67
2021/09/10 13:30:48;;;;;;;16.05;8.10;;;;;;;;;;5073222;28;20029;-69
2021/09/10 13:33:55;;;;;;;12.15;7.25;;;;;;;;;;5072966;28;20081;-69
2021/09/10 13:37:00;;;;;;;9.75;6.65;;;;;;;;;;5072792;28;20401;-67
2021/09/10 13:40:04;;;;;;;9.65;6.82;;;;;;;;;;5073392;28;20044;-69
2021/09/10 13:43:11;;;;;;;14.52;6.78;;;;;;;;;;5073009;28;20484;-68
2021/09/10 13:46:15;;;;;;;18.63;6.95;;;;;;;;;;5072051;28;20048;-69
2021/09/10 13:49:20;;;;;;;13.70;7.85;;;;;;;;;;5072142;28;20036;-72
2021/09/10 13:52:25;;;;;;;14.38;7.00;;;;;;;;;;5072860;28;20056;-69
2021/09/10 13:55:32;;;;;;;10.23;6.47;;;;;;;;;;5072797;28;20662;-68
2021/09/10 13:58:37;;;;;;;12.75;6.57;;;;;;;;;;5072751;28;20032;-67
2021/09/10 14:01:41;;;;;;;9.93;6.63;;;;;;;;;;5072326;28;20041;-68
2021/09/10 14:04:46;;;;;;;7.40;6.22;;;;;;;;;;5072512;28;20036;-68
2021/09/10 14:07:50;;;;;;;26.23;6.95;;;;;;;;;;5072350;28;20048;-69
2021/09/10 14:10:55;;;;;;;9.50;5.95;;;;;;;;;;5072254;28;20044;-67
2021/09/10 14:14:00;;;;;;;17.15;6.78;;;;;;;;;;5072286;28;20492;-68
2021/09/10 14:17:05;;;;;;;8.90;6.55;;;;;;;;;;5072364;28;20060;-68
2021/09/10 14:20:12;;;;;;;12.18;6.40;;;;;;;;;;5072029;28;20036;-67
2021/09/10 14:23:18;;;;;;;9.35;6.43;;;;;;;;;;5072034;28;20041;-66
2021/09/10 14:26:24;;;;;;;10.60;6.20;;;;;;;;;;5070993;28;20492;-70
2021/09/10 14:29:28;;;;;;;8.15;5.90;;;;;;;;;;5071385;28;20048;-70
2021/09/10 14:32:32;;;;;;;15.68;6.43;;;;;;;;;;5071572;28;20052;-70
2021/09/10 14:35:37;;;;;;;13.70;6.95;;;;;;;;;;5071372;28;20041;-67
2021/09/10 14:38:41;;;;;;;10.27;5.75;;;;;;;;;;5071286;28;20036;-66
2021/09/10 14:41:45;;;;;;;9.93;5.40;;;;;;;;;;5071090;28;20051;-67
2021/09/10 14:44:50;;;;;;;11.80;5.75;;;;;;;;;;5071237;28;20036;-68
2021/09/10 14:47:54;;;;;;;9.27;5.55;;;;;;;;;;5071289;28;20043;-68
2021/09/10 14:50:58;;;;;;;11.10;5.82;;;;;;;;;;5070611;28;20040;-67
2021/09/10 14:54:03;;;;;;;10.30;5.38;;;;;;;;;;5058741;28;20526;-66
2021/09/10 14:57:08;;;;;;;13.07;5.47;;;;;;;;;;5071056;28;20484;-67
2021/09/10 15:00:15;;;;;;;11.88;5.53;;;;;;;;;;5070884;28;20047;-68
2021/09/10 15:03:19;;;;;;;12.13;5.80;;;;;;;;;;5071171;28;20055;-68
2021/09/10 15:06:24;;;;;;;14.60;5.90;;;;;;;;;;5070726;28;20044;-70
2021/09/10 15:09:28;;;;;;;10.93;5.63;;;;;;;;;;5069997;28;20063;-68
2021/09/10 15:12:34;;;;;;;11.30;5.78;;;;;;;;;;5070728;28;20049;-67
2021/09/10 15:15:38;;;;;;;11.15;6.60;;;;;;;;;;5071190;28;20040;-67
2021/09/10 15:18:43;;;;;;;13.27;6.85;;;;;;;;;;5070916;28;20033;-69
2021/09/10 15:21:48;;;;;;;22.63;7.70;;;;;;;;;;5071541;28;20032;-69
2021/09/10 15:24:52;;;;;;;12.98;6.25;;;;;;;;;;5071251;28;20526;-70
2021/09/10 15:27:56;;;;;;;14.73;6.53;;;;;;;;;;5070960;28;20495;-67
2021/09/10 15:31:01;;;;;;;24.05;7.15;;;;;;;;;;5070050;28;20033;-67
2021/09/10 15:34:06;;;;;;;17.67;6.60;;;;;;;;;;5070800;28;20044;-68
2021/09/10 15:37:12;;;;;;;13.05;6.05;;;;;;;;;;5070814;28;20052;-68
2021/09/10 15:40:17;;;;;;;13.40;6.07;;;;;;;;;;5070903;28;20047;-67
2021/09/10 15:43:21;;;;;;;16.33;6.35;;;;;;;;;;5071121;28;20049;-68
2021/09/10 15:46:25;;;;;;;12.65;6.60;;;;;;;;;;5070646;28;20036;-68
2021/09/10 15:49:30;;;;;;;13.25;6.63;;;;;;;;;;5071125;28;20499;-68
2021/09/10 15:52:36;;;;;;;11.27;7.82;;;;;;;;;;5071140;28;20055;-67
2021/09/10 15:55:41;;;;;;;11.60;7.40;;;;;;;;;;5070204;28;20051;-67
2021/09/10 15:58:50;;;;;;;9.23;6.32;;;;;;;;;;5069791;28;20404;-69
2021/09/10 16:01:54;;;;;;;10.02;6.18;;;;;;;;;;5072970;28;20040;-67
2021/09/10 16:04:58;;;;;;;16.63;7.43;;;;;;;;;;5074347;28;20416;-67
2021/09/10 16:08:03;;;;;;;29.10;7.65;;;;;;;;;;5073330;28;20056;-68
2021/09/10 16:11:08;;;;;;;13.93;7.13;;;;;;;;;;5074293;28;20156;-68
2021/09/10 16:14:12;;;;;;;18.92;7.22;;;;;;;;;;5074100;28;20044;-71
2021/09/10 16:17:17;;;;;;;22.58;7.47;;;;;;;;;;5073807;28;20040;-68
2021/09/10 16:20:21;;;;;;;14.95;6.57;;;;;;;;;;5072948;28;20045;-69
2021/09/10 16:23:26;;;;;;;13.15;7.38;;;;;;;;;;5073940;28;20043;-70
2021/09/10 16:26:30;;;;;;;12.65;6.80;;;;;;;;;;5074809;28;20401;-70
2021/09/10 16:29:34;;;;;;;7.68;6.88;;;;;;;;;;5073692;28;20036;-68
2021/09/10 16:32:40;;;;;;;10.38;7.00;;;;;;;;;;5074071;28;20048;-67
2021/09/10 16:35:45;;;;;;;15.52;6.82;;;;;;;;;;5073135;28;20043;-69
2021/09/10 16:38:49;;;;;;;7.38;6.15;;;;;;;;;;5073781;28;20143;-67
2021/09/10 16:41:53;;;;;;;12.20;7.10;;;;;;;;;;5073155;28;20048;-69
2021/09/10 16:44:58;;;;;;;11.13;7.85;;;;;;;;;;5073154;28;20032;-69
2021/09/10 16:48:02;;;;;;;12.27;7.72;;;;;;;;;;5072899;28;20073;-68
2021/09/10 16:51:06;;;;;;;18.38;8.13;;;;;;;;;;5073376;28;20043;-69
2021/09/10 16:54:10;;;;;;;12.48;7.53;;;;;;;;;;5072438;28;20204;-69
2021/09/10 16:57:16;;;;;;;13.50;7.30;;;;;;;;;;5072283;28;20033;-65
2021/09/10 17:00:20;;;;;;;15.93;7.57;;;;;;;;;;5073069;28;20043;-67
2021/09/10 17:03:25;;;;;;;17.48;8.25;;;;;;;;;;5071893;28;20404;-67
2021/09/10 17:06:29;;;;;;;15.30;7.90;;;;;;;;;;5071714;28;20538;-69
2021/09/10 17:09:34;;;;;;;13.25;8.00;;;;;;;;;;5071854;28;20053;-67
2021/09/10 17:12:38;;;;;;;14.55;7.80;;;;;;;;;;5071254;28;20048;-67
2021/09/10 17:15:42;;;;;;;14.00;7.57;;;;;;;;;;5071939;28;20400;-66
2021/09/10 17:18:47;;;;;;;14.73;7.75;;;;;;;;;;5072150;28;20174;-67
2021/09/10 17:21:53;;;;;;;15.57;7.82;;;;;;;;;;5072914;28;20045;-67
2021/09/10 17:24:58;;;;;;;13.30;7.65;;;;;;;;;;5072545;28;20036;-67
2021/09/10 17:28:03;;;;;;;19.55;8.48;;;;;;;;;;5071687;28;20623;-67
2021/09/10 17:31:07;;;;;;;20.05;7.90;;;;;;;;;;5072819;28;20044;-67
2021/09/10 17:34:11;;;;;;;17.45;7.22;;;;;;;;;;5072672;28;20048;-68
2021/09/10 17:37:16;;;;;;;31.50;9.15;;;;;;;;;;5072077;28;20044;-67
2021/09/10 17:40:21;;;;;;;29.55;8.68;;;;;;;;;;5072555;28;20407;-66
2021/09/10 17:43:25;;;;;;;27.42;8.43;;;;;;;;;;5072389;28;20339;-66
2021/09/10 17:46:30;;;;;;;34.55;9.40;;;;;;;;;;5071083;28;20508;-66
2021/09/10 17:49:34;;;;;;;27.55;9.80;;;;;;;;;;5072246;28;20032;-67
2021/09/10 17:52:39;;;;;;;27.98;9.80;;;;;;;;;;5072195;28;20053;-67
2021/09/10 17:55:43;;;;;;;14.93;8.35;;;;;;;;;;5072094;28;20044;-67
2021/09/10 17:58:47;;;;;;;21.55;9.18;;;;;;;;;;5072201;28;20395;-66
2021/09/10 18:01:51;;;;;;;18.20;8.70;;;;;;;;;;5071712;28;20163;-66
2021/09/10 18:04:56;;;;;;;17.60;9.27;;;;;;;;;;5071161;28;20495;-66
2021/09/10 18:08:00;;;;;;;16.27;7.75;;;;;;;;;;5072642;28;20057;-66
2021/09/10 18:11:05;;;;;;;17.60;8.38;;;;;;;;;;5071541;28;20039;-66